Domov               UVHVVR             MKGP            O straneh              
ZDRAVSTVENO VARSTVO RASTLIN
  MREŽA AGROMET. POSTAJ
 ► PROGNOSTIČNA OBVESTILA
AGROMETEOROLOŠKI PODATKI -
ARSO
OBVLADOVANJE TVEGANJ ZARADI
NEUGODNIH VREMENSKIH RAZMER
  ► NARAVNE NESREČE
  ► SUŠA/MOČA
  ► NAMAKANJE
  ► ŽLED (gozdarstvo)
KARTOGRAFSKI PRIKAZI
SPLETNE POVEZAVE
PROJEKTI IN PUBLIKACIJE

AGROMETEOROLOŠKA MREŽA: VREMENSKE POSTAJE IN FENOLOŠKA OPAZOVANJA

Pregled podatkov za lokacijo BOROVNICA, meteorološka postaja 27469

Pregled senzorjev na lokaciji

ID Ime Zadnja
vrednost
Datum
zadnje
spremembe
Tip
senzorja
1683 Temperatura 2 m (°C) 0,56 °C 16.12.2017 18:30 Generic -40 - +60 °C
1684 Relativna vlaga 2 m (% RH) 99,93 % RH 16.12.2017 18:30 Generic 0 - 100 %
2195 Padavine (mm) 0 mm 16.12.2017 18:30 Generic 0.2 mm
4222 Hitrost vetra (km/h) 0 km/h 16.12.2017 18:30 Generic 200 km/h
4223 Smer vetra (°) 280,53 ° 16.12.2017 18:30 Generic 0 - 360

Pregled podatkov zadnjih 24 ur

Zap.
št.
Datum in čas BOROVNICA
Hitrost
vetra
Padavine Relativna
vlaga
2
m
Smer
vetra
Temperatura
2
m
0 16.12.2017 18:30 0 0 99,93 280,53 0,56
1 16.12.2017 18:00 0 0 99,93 280,53 1,59
2 16.12.2017 17:30 0 0 95,36 280,26 1,61
3 16.12.2017 17:00 0,1 0 89,13 280,26 2,42
4 16.12.2017 16:30 1,76 0 87,99 246,68 3,08
5 16.12.2017 16:00 3,42 0 87,25 253,19 3,35
6 16.12.2017 15:30 3,71 0 86,67 249,93 3,52
7 16.12.2017 15:00 2,34 0 86,23 247,47 3,44
8 16.12.2017 14:30 0 0 87,06 231,03 3,25
9 16.12.2017 14:00 2,34 0 86,96 231,47 3,13
10 16.12.2017 13:30 1,32 0 86,89 238,68 3,08
11 16.12.2017 13:00 2,2 0 88,01 263,74 2,93
12 16.12.2017 12:30 0,83 0 88,3 331,96 2,86
13 16.12.2017 12:00 0,59 0 89,69 305,41 2,78
14 16.12.2017 11:30 0,59 0 93,09 297,14 2,76
15 16.12.2017 11:00 3,17 0 98,71 262,07 2,34
16 16.12.2017 10:30 0 0,4 99,93 186,73 1,98
17 16.12.2017 10:00 0,29 0,4 99,93 186,73 1,47
18 16.12.2017 09:30 7,57 0,8 99,93 188,22 1,03
19 16.12.2017 09:00 0,88 0,4 99,93 108,57 0,68
20 16.12.2017 08:30 1,27 0,6 99,93 58,73 0,46
21 16.12.2017 08:00 0,24 0,6 99,93 93,19 0,34
22 16.12.2017 07:30 0 0,4 99,93 166,33 0,1
23 16.12.2017 07:00 0 0,2 99,93 166,33 0,02
24 16.12.2017 06:30 0 0,2 99,93 166,33 -0,05
25 16.12.2017 06:00 0 0,2 99,93 166,33 -0,1
26 16.12.2017 05:30 0 0,2 99,93 166,33 -0,2
27 16.12.2017 05:00 0 0 99,93 166,33 -0,2
28 16.12.2017 04:30 0 0,2 99,93 166,33 -0,24
29 16.12.2017 04:00 0 0 99,93 166,33 -0,29
30 16.12.2017 03:30 0 0,2 99,93 166,33 -0,32
31 16.12.2017 03:00 0 0,2 99,93 166,33 -0,22
32 16.12.2017 02:30 0 0,2 99,93 166,33 -0,1
33 16.12.2017 02:00 0 0 99,93 166,33 -0,15
34 16.12.2017 01:30 0,05 0,2 99,93 166,33 -0,22
35 16.12.2017 01:00 0,29 0,2 99,93 166,33 -0,15
36 16.12.2017 00:30 2,3 0,4 99,93 159,03 0,02
37 16.12.2017 00:00 9,23 1,2 99,93 166,77 0,63
38 15.12.2017 23:30 4,25 0,6 99,61 192,18 1,54
39 15.12.2017 23:00 0,63 0,4 92,01 221,01 2,49
40 15.12.2017 22:30 9,18 0,4 90,96 304,62 2,61
41 15.12.2017 22:00 15,04 1,2 93,63 321,49 2,44
42 15.12.2017 21:30 9,18 1,2 91,53 317,19 2,56
43 15.12.2017 21:00 14,9 0,6 90,38 311,3 3,22
44 15.12.2017 20:30 26,13 1,2 93,04 289,23 4,13
45 15.12.2017 20:00 23,93 1,2 99,58 294,07 5,81
© 2011 Ministrstvo za kmetijstvo, gozdarstvo in prehrano. Vse pravice pridržane.